Terminal Aerodrome Forecast
Issued by NWS

Home | Current Version | Previous Version | Text Only | Print | Product List | Glossary Off
Versions: 1 2 3 4 5 6 7 8 9 10 11 12 13 14 15 16 17 18 19 20

000
FTUS42 KMHX 182340
TAFOAJ
TAF
KOAJ 182340Z 1900/1924 16005KT P6SM VCSH BKN014 OVC020
     FM190600 16005KT 5SM SHRA SCT005 OVC014
     FM191200 18011G17KT 3SM SHRA SCT005 OVC018
      AMD LTD TO CLD VIS AND WIND=

USA.gov is the U.S. government's official web portal to all federal, state and local government web resources and services.